KAVX/AVX METAR and TAF weather

Enter ICAO airport designator
Station Type Date Time Source
KAVX METAR 2023/02/05 23:51 UTC NOAA

KAVX 052351Z AUTO 27018G24KT 10SM CLR 12/07 A3016 RMK AO2 SLP211 T01220067 10139 20111 56010


Station Type Date Time Source
KAVX Decoded METAR 2023/02/05 23:51 UTC NOAA

AVALON CATALINA AIRPORT, CA, United States (KAVX) 33-24N 118-25W 482M
Feb 05, 2023 - 06:51 PM EST / 2023.02.05 2351 UTC
Wind: from the W (270 degrees) at 21 MPH (18 KT) gusting to 28 MPH (24 KT):0
Visibility: 10 mile(s):0
Sky conditions: clear
Temperature: 54.0 F (12.2 C)
Dew Point: 44.1 F (6.7 C)
Relative Humidity: 69%
Pressure (altimeter): 30.16 in. Hg (1021 hPa)
Pressure tendency: 0.03 inches (1.0 hPa) lower than three hours ago
ob: KAVX 052351Z AUTO 27018G24KT 10SM CLR 12/07 A3016 RMK AO2 SLP211 T01220067 10139 20111 56010
cycle: 0

Station Type Date Time Source
KAVX TAF UTC NOAA

Error!

Example: see airport list